createdAt,value
2019-05-25T00:00:55.252Z,82.32
2019-05-25T00:01:55.244Z,82.67
2019-05-25T00:02:55.273Z,82.53
2019-05-25T00:03:55.218Z,82.73
2019-05-25T00:04:55.217Z,82.56
2019-05-25T00:05:55.204Z,82.63
2019-05-25T00:06:55.189Z,82.42
2019-05-25T00:07:55.204Z,82.67
2019-05-25T00:08:55.201Z,82.93
2019-05-25T00:09:55.153Z,84.09
2019-05-25T00:10:55.144Z,84.00
2019-05-25T00:11:55.132Z,83.79
2019-05-25T00:12:55.123Z,84.30
2019-05-25T00:13:55.103Z,84.50
2019-05-25T00:14:55.108Z,84.30
2019-05-25T00:15:55.084Z,84.00
2019-05-25T00:16:55.075Z,84.24
2019-05-25T00:17:55.084Z,84.41
2019-05-25T00:18:55.065Z,84.34
2019-05-25T00:19:55.071Z,84.65
2019-05-25T00:20:55.028Z,83.73
2019-05-25T00:21:55.020Z,84.55
2019-05-25T00:22:55.011Z,85.06
2019-05-25T00:23:54.992Z,85.06
2019-05-25T00:24:55.008Z,85.26
2019-05-25T00:25:55.060Z,85.81
2019-05-25T00:26:54.965Z,86.59
2019-05-25T00:27:54.953Z,86.12
2019-05-25T00:28:54.939Z,86.02
2019-05-25T00:29:54.947Z,86.02
2019-05-25T00:30:54.911Z,86.63
2019-05-25T00:31:54.918Z,86.32
2019-05-25T00:32:54.920Z,86.53
2019-05-25T00:33:54.889Z,86.53
2019-05-25T00:34:54.871Z,86.63
2019-05-25T00:35:54.872Z,86.63
2019-05-25T00:36:54.855Z,86.83
2019-05-25T00:37:54.844Z,86.94
2019-05-25T00:38:54.828Z,86.73
2019-05-25T00:39:54.820Z,86.43
2019-05-25T00:40:54.841Z,86.73
2019-05-25T00:41:54.819Z,87.04
2019-05-25T00:42:54.787Z,86.94
2019-05-25T00:43:54.773Z,87.04
2019-05-25T00:44:54.766Z,87.24
2019-05-25T00:45:54.912Z,87.18
2019-05-25T00:46:54.737Z,86.83
2019-05-25T00:47:54.743Z,87.08
2019-05-25T00:48:54.752Z,87.04
2019-05-25T00:49:54.712Z,87.45
2019-05-25T00:50:54.700Z,86.98
2019-05-25T00:51:54.684Z,87.14
2019-05-25T00:52:54.700Z,87.35
2019-05-25T00:53:54.681Z,87.14
2019-05-25T00:54:54.648Z,87.08
2019-05-25T00:55:54.640Z,86.98
2019-05-25T00:56:54.631Z,87.29
2019-05-25T00:57:54.612Z,87.29
2019-05-25T00:58:54.623Z,87.38
2019-05-25T00:59:54.627Z,87.38
2019-05-25T01:00:54.649Z,87.49
2019-05-25T01:01:54.572Z,87.38
2019-05-25T01:02:54.569Z,87.70
2019-05-25T01:03:54.548Z,87.59
2019-05-25T01:04:54.539Z,87.29
2019-05-25T01:05:54.577Z,87.49
2019-05-25T01:06:54.512Z,88.31
2019-05-25T01:07:54.500Z,88.20
2019-05-25T01:08:54.492Z,88.10
2019-05-25T01:09:54.475Z,87.90
2019-05-25T01:10:54.472Z,88.20
2019-05-25T01:11:54.475Z,88.04
2019-05-25T01:12:54.459Z,87.90
2019-05-25T01:13:54.431Z,88.14
2019-05-25T01:14:54.420Z,89.06
2019-05-25T01:15:54.418Z,88.31
2019-05-25T01:16:54.409Z,89.27
2019-05-25T01:17:54.440Z,89.17
2019-05-25T01:18:54.380Z,89.17
2019-05-25T01:19:54.371Z,89.06
2019-05-25T01:20:54.363Z,88.04
2019-05-25T01:21:54.374Z,89.17
2019-05-25T01:22:54.336Z,88.04
2019-05-25T01:23:54.347Z,88.14
2019-05-25T01:24:54.307Z,88.04
2019-05-25T01:25:54.304Z,87.94
2019-05-25T01:26:54.301Z,89.17
2019-05-25T01:27:54.276Z,89.17
2019-05-25T01:28:54.288Z,88.35
2019-05-25T01:29:54.263Z,88.56
2019-05-25T01:30:54.275Z,89.06
2019-05-25T01:31:54.233Z,88.96
2019-05-25T01:32:54.224Z,89.06
2019-05-25T01:33:54.209Z,88.96
2019-05-25T01:34:54.232Z,89.06
2019-05-25T01:35:54.188Z,88.56
2019-05-25T01:36:54.192Z,88.56
2019-05-25T01:37:54.169Z,88.76
2019-05-25T01:38:54.155Z,89.47
2019-05-25T01:39:54.143Z,89.47
2019-05-25T01:40:54.173Z,89.37
2019-05-25T01:41:54.123Z,88.65
2019-05-25T01:42:54.112Z,88.86
2019-05-25T01:43:54.116Z,88.76
2019-05-25T01:44:54.088Z,89.47
2019-05-25T01:45:54.084Z,89.83
2019-05-25T01:46:54.096Z,89.83
2019-05-25T01:47:54.056Z,89.31
2019-05-25T01:48:54.044Z,89.58
2019-05-25T01:49:54.036Z,89.06
2019-05-25T01:50:54.019Z,89.11
2019-05-25T01:51:54.035Z,89.21
2019-05-25T01:52:54.020Z,89.42
2019-05-25T01:53:53.985Z,90.13
2019-05-25T01:54:59.732Z,89.72
2019-05-25T01:55:54.967Z,90.34
2019-05-25T01:56:53.963Z,90.23
2019-05-25T01:57:53.963Z,89.92
2019-05-25T01:58:53.931Z,89.83
2019-05-25T01:59:53.953Z,90.75
2019-05-25T02:00:53.911Z,90.44
2019-05-25T02:01:53.902Z,90.44
2019-05-25T02:02:53.909Z,90.28
2019-05-25T02:03:53.889Z,90.69
2019-05-25T02:04:53.868Z,90.64
2019-05-25T02:05:53.875Z,90.99
2019-05-25T02:06:53.849Z,90.37
2019-05-25T02:07:53.835Z,91.36
2019-05-25T02:08:53.820Z,91.50
2019-05-25T02:09:53.811Z,91.20
2019-05-25T02:10:53.827Z,91.50
2019-05-25T02:11:53.820Z,91.91
2019-05-25T02:12:53.780Z,92.02
2019-05-25T02:13:53.764Z,91.75
2019-05-25T02:14:53.768Z,92.43
2019-05-25T02:15:53.739Z,91.61
2019-05-25T02:16:53.732Z,91.50
2019-05-25T02:17:53.743Z,91.91
2019-05-25T02:18:53.725Z,91.91
2019-05-25T02:19:53.708Z,91.91
2019-05-25T02:20:53.684Z,91.91
2019-05-25T02:21:53.678Z,92.12
2019-05-25T02:22:53.659Z,92.06
2019-05-25T02:23:53.688Z,91.86
2019-05-25T02:24:53.644Z,92.16
2019-05-25T02:25:53.636Z,92.36
2019-05-25T02:26:53.641Z,92.36
2019-05-25T02:27:53.608Z,92.27
2019-05-25T02:28:53.596Z,91.86
2019-05-25T02:29:53.607Z,92.36
2019-05-25T02:30:53.576Z,92.16
2019-05-25T02:31:53.584Z,92.47
2019-05-25T02:32:53.555Z,92.78
2019-05-25T02:33:53.544Z,92.47
2019-05-25T02:34:53.539Z,92.27
2019-05-25T02:35:53.532Z,92.57
2019-05-25T02:36:53.508Z,92.57
2019-05-25T02:37:53.492Z,92.47
2019-05-25T02:38:53.480Z,92.36
2019-05-25T02:39:53.548Z,92.78
2019-05-25T02:40:53.463Z,92.57
2019-05-25T02:41:53.448Z,92.27
2019-05-25T02:42:53.464Z,92.31
2019-05-25T02:43:53.431Z,92.36
2019-05-25T02:44:53.422Z,92.41
2019-05-25T02:45:53.440Z,92.27
2019-05-25T02:46:53.396Z,92.36
2019-05-25T02:47:53.383Z,92.16
2019-05-25T02:48:53.372Z,91.96
2019-05-25T02:49:53.364Z,92.27
2019-05-25T02:50:53.368Z,92.16
2019-05-25T02:51:53.339Z,92.27
2019-05-25T02:52:53.327Z,92.06
2019-05-25T02:53:53.319Z,91.65
2019-05-25T02:54:53.307Z,91.86
2019-05-25T02:55:53.348Z,91.82
2019-05-25T02:56:53.287Z,91.65
2019-05-25T02:57:53.271Z,91.50
2019-05-25T02:58:53.257Z,91.71
2019-05-25T02:59:53.248Z,91.71
2019-05-25T03:00:53.240Z,91.30
2019-05-25T03:01:53.241Z,92.22
2019-05-25T03:02:53.235Z,91.50
2019-05-25T03:03:53.211Z,91.30
2019-05-25T03:04:53.196Z,91.61
2019-05-25T03:05:53.203Z,91.30
2019-05-25T03:06:53.190Z,90.69
2019-05-25T03:07:53.176Z,90.64
2019-05-25T03:08:53.160Z,90.95
2019-05-25T03:09:53.169Z,90.75
2019-05-25T03:10:53.127Z,90.75
2019-05-25T03:11:53.116Z,89.98
2019-05-25T03:12:53.120Z,90.34
2019-05-25T03:13:53.100Z,90.75
2019-05-25T03:14:53.091Z,90.54
2019-05-25T03:15:53.067Z,90.44
2019-05-25T03:16:53.068Z,90.64
2019-05-25T03:17:53.044Z,90.13
2019-05-25T03:18:53.063Z,90.23
2019-05-25T03:19:53.036Z,90.19
2019-05-25T03:20:53.016Z,89.27
2019-05-25T03:21:53.005Z,89.37
2019-05-25T03:22:52.992Z,89.47
2019-05-25T03:23:52.999Z,89.47
2019-05-25T03:24:52.996Z,89.58
2019-05-25T03:25:52.960Z,90.09
2019-05-25T03:26:52.947Z,89.89
2019-05-25T03:27:52.939Z,89.98
2019-05-25T03:28:52.927Z,90.39
2019-05-25T03:29:52.931Z,89.47
2019-05-25T03:30:52.900Z,90.19
2019-05-25T03:31:52.903Z,90.19
2019-05-25T03:32:52.877Z,89.89
2019-05-25T03:33:52.882Z,90.09
2019-05-25T03:34:52.911Z,90.60
2019-05-25T03:35:52.865Z,89.98
2019-05-25T03:36:52.833Z,90.19
2019-05-25T03:37:52.820Z,90.19
2019-05-25T03:38:52.815Z,89.47
2019-05-25T03:39:52.806Z,89.68
2019-05-25T03:40:52.841Z,90.60
2019-05-25T03:41:52.803Z,90.60
2019-05-25T03:42:52.779Z,89.83
2019-05-25T03:43:52.756Z,90.23
2019-05-25T03:44:52.747Z,90.34
2019-05-25T03:45:52.736Z,90.75
2019-05-25T03:46:52.759Z,90.54
2019-05-25T03:47:52.727Z,90.39
2019-05-25T03:48:52.704Z,90.13
2019-05-25T03:49:52.692Z,89.92
2019-05-25T03:50:52.680Z,90.60
2019-05-25T03:51:52.668Z,90.84
2019-05-25T03:52:52.672Z,90.70
2019-05-25T03:53:52.649Z,90.39
2019-05-25T03:54:52.667Z,90.50
2019-05-25T03:56:05.202Z,90.60
2019-05-25T03:56:53.615Z,90.70
2019-05-25T03:57:52.603Z,90.91
2019-05-25T03:58:52.595Z,90.81
2019-05-25T03:59:52.579Z,90.81
2019-05-25T04:00:52.571Z,90.91
2019-05-25T04:01:52.571Z,90.81
2019-05-25T04:02:52.558Z,90.60
2019-05-25T04:03:52.553Z,90.60
2019-05-25T04:04:52.525Z,90.50
2019-05-25T04:05:52.512Z,90.36
2019-05-25T04:06:52.499Z,90.56
2019-05-25T04:07:52.502Z,90.86
2019-05-25T04:08:52.484Z,90.56
2019-05-25T04:09:52.500Z,90.36
2019-05-25T04:10:52.819Z,90.15
2019-05-25T04:11:52.463Z,90.25
2019-05-25T04:12:52.436Z,90.25
2019-05-25T04:13:52.424Z,89.89
2019-05-25T04:14:52.407Z,90.05
2019-05-25T04:15:52.435Z,89.94
2019-05-25T04:16:52.383Z,89.84
2019-05-25T04:17:52.380Z,90.05
2019-05-25T04:18:52.371Z,90.15
2019-05-25T04:19:52.355Z,89.94
2019-05-25T04:20:52.343Z,89.47
2019-05-25T04:21:52.367Z,89.17
2019-05-25T04:22:52.319Z,88.86
2019-05-25T04:23:52.315Z,88.76
2019-05-25T04:24:52.300Z,89.58
2019-05-25T04:25:52.291Z,89.58
2019-05-25T04:26:52.287Z,90.30
2019-05-25T04:27:52.279Z,89.98
2019-05-25T04:28:52.263Z,89.27
2019-05-25T04:29:52.248Z,89.06
2019-05-25T04:30:52.237Z,89.03
2019-05-25T04:31:52.223Z,89.27
2019-05-25T04:32:52.245Z,88.96
2019-05-25T04:33:52.196Z,88.45
2019-05-25T04:34:52.188Z,89.37
2019-05-25T04:35:52.179Z,89.37
2019-05-25T04:36:52.165Z,89.58
2019-05-25T04:37:52.163Z,89.37
2019-05-25T04:38:52.240Z,89.68
2019-05-25T04:39:52.132Z,89.27
2019-05-25T04:40:52.119Z,89.68
2019-05-25T04:41:52.103Z,89.98
2019-05-25T04:42:52.100Z,89.47
2019-05-25T04:43:52.120Z,89.17
2019-05-25T04:44:52.089Z,89.37
2019-05-25T04:45:52.063Z,89.37
2019-05-25T04:46:52.047Z,89.58
2019-05-25T04:47:52.044Z,89.68
2019-05-25T04:48:52.043Z,89.27
2019-05-25T04:49:52.015Z,89.37
2019-05-25T04:50:52.031Z,89.17
2019-05-25T04:51:51.995Z,88.24
2019-05-25T04:52:51.993Z,89.17
2019-05-25T04:53:51.976Z,89.06
2019-05-25T04:54:51.991Z,88.92
2019-05-25T04:55:51.959Z,89.03
2019-05-25T04:56:51.991Z,88.62
2019-05-25T04:57:51.932Z,88.20
2019-05-25T04:58:51.915Z,87.79
2019-05-25T04:59:51.911Z,87.59
2019-05-25T05:00:51.897Z,87.79
2019-05-25T05:01:51.885Z,87.29
2019-05-25T05:02:51.896Z,86.77
2019-05-25T05:03:51.887Z,87.14
2019-05-25T05:04:51.851Z,86.88
2019-05-25T05:05:51.839Z,87.55
2019-05-25T05:06:51.839Z,88.06
2019-05-25T05:07:51.852Z,87.65
2019-05-25T05:08:51.824Z,86.83
2019-05-25T05:10:02.286Z,86.73
2019-05-25T05:10:52.788Z,86.83
2019-05-25T05:11:51.768Z,86.88
2019-05-25T05:12:51.763Z,86.94
2019-05-25T05:13:51.768Z,87.04
2019-05-25T05:14:51.739Z,86.98
2019-05-25T05:15:51.724Z,86.43
2019-05-25T05:16:51.754Z,86.02
2019-05-25T05:17:51.708Z,86.53
2019-05-25T05:18:51.711Z,85.71
2019-05-25T05:19:51.704Z,86.43
2019-05-25T05:20:51.671Z,85.91
2019-05-25T05:21:51.663Z,86.02
2019-05-25T05:22:51.663Z,85.81
2019-05-25T05:23:51.639Z,86.57
2019-05-25T05:24:51.627Z,87.04
2019-05-25T05:25:51.628Z,86.83
2019-05-25T05:26:55.754Z,86.94
2019-05-25T05:27:51.598Z,86.73
2019-05-25T05:28:51.588Z,86.32
2019-05-25T05:29:51.601Z,86.02
2019-05-25T05:30:51.588Z,85.97
2019-05-25T05:31:51.547Z,84.79
2019-05-25T05:32:51.543Z,83.97
2019-05-25T05:33:51.531Z,84.99
2019-05-25T05:34:51.515Z,85.20
2019-05-25T05:35:51.499Z,85.97
2019-05-25T05:36:51.503Z,86.29
2019-05-25T05:37:51.587Z,86.49
2019-05-25T05:38:51.474Z,85.36
2019-05-25T05:39:51.476Z,85.36
2019-05-25T05:40:51.451Z,84.03
2019-05-25T05:41:51.456Z,84.24
2019-05-25T05:42:51.443Z,84.65
2019-05-25T05:43:51.415Z,85.26
2019-05-25T05:44:51.399Z,85.57
2019-05-25T05:45:51.399Z,84.65
2019-05-25T05:46:51.379Z,84.44
2019-05-25T05:47:51.379Z,84.44
2019-05-25T05:48:51.357Z,84.14
2019-05-25T05:49:51.375Z,84.85
2019-05-25T05:50:51.335Z,84.50
2019-05-25T05:51:51.327Z,84.14
2019-05-25T05:52:51.320Z,84.34
2019-05-25T05:53:51.303Z,84.03
2019-05-25T05:54:51.371Z,84.34
2019-05-25T05:55:51.279Z,84.30
2019-05-25T05:56:51.370Z,83.69
2019-05-25T05:57:51.275Z,84.00
2019-05-25T05:58:51.247Z,84.00
2019-05-25T05:59:51.240Z,83.48
2019-05-25T06:00:51.268Z,83.79
2019-05-25T06:01:51.215Z,83.89
2019-05-25T06:02:51.203Z,83.79
2019-05-25T06:03:51.191Z,83.89
2019-05-25T06:04:51.188Z,84.09
2019-05-25T06:05:51.178Z,84.06
2019-05-25T06:06:51.175Z,84.26
2019-05-25T06:07:51.151Z,84.26
2019-05-25T06:08:51.143Z,83.75
2019-05-25T06:09:51.127Z,82.83
2019-05-25T06:10:51.119Z,82.63
2019-05-25T06:11:51.105Z,82.53
2019-05-25T06:12:51.121Z,82.89
2019-05-25T06:13:51.116Z,80.89
2019-05-25T06:14:51.075Z,80.55
2019-05-25T06:15:51.059Z,82.22
2019-05-25T06:16:51.047Z,81.26
2019-05-25T06:17:51.052Z,81.05
2019-05-25T06:18:51.069Z,81.26
2019-05-25T06:19:51.015Z,81.16
2019-05-25T06:20:51.003Z,81.46
2019-05-25T06:21:51.020Z,81.16
2019-05-25T06:22:50.990Z,81.05
2019-05-25T06:23:50.971Z,80.34
2019-05-25T06:24:50.992Z,82.18
2019-05-25T06:25:50.960Z,80.96
2019-05-25T06:26:50.936Z,80.14
2019-05-25T06:27:50.927Z,80.24
2019-05-25T06:28:50.914Z,80.18
2019-05-25T06:29:50.919Z,79.87
2019-05-25T06:30:50.907Z,80.58
2019-05-25T06:31:50.956Z,81.30
2019-05-25T06:32:50.868Z,80.99
2019-05-25T06:33:50.855Z,80.99
2019-05-25T06:34:50.850Z,81.30
2019-05-25T06:35:50.848Z,81.30
2019-05-25T06:36:50.835Z,81.20
2019-05-25T06:37:50.815Z,82.01
2019-05-25T06:38:50.798Z,80.48
2019-05-25T06:39:50.824Z,81.26
2019-05-25T06:40:50.779Z,81.10
2019-05-25T06:41:50.794Z,81.26
2019-05-25T06:42:50.819Z,81.20
2019-05-25T06:43:50.747Z,81.26
2019-05-25T06:44:50.739Z,81.16
2019-05-25T06:45:50.729Z,81.32
2019-05-25T06:46:50.727Z,80.82
2019-05-25T06:47:50.708Z,80.14
2019-05-25T06:48:50.738Z,80.55
2019-05-25T06:49:50.681Z,80.61
2019-05-25T06:50:50.671Z,80.34
2019-05-25T06:51:50.663Z,80.91
2019-05-25T06:52:50.704Z,81.09
2019-05-25T06:53:50.651Z,80.71
2019-05-25T06:54:50.662Z,79.80
2019-05-25T06:55:50.611Z,80.61
2019-05-25T06:56:50.605Z,80.00
2019-05-25T06:57:50.597Z,78.47
2019-05-25T06:58:50.578Z,78.98
2019-05-25T06:59:50.584Z,79.83
2019-05-25T07:00:50.571Z,79.49
2019-05-25T07:01:50.542Z,78.41
2019-05-25T07:02:50.549Z,79.18
2019-05-25T07:03:50.519Z,77.75
2019-05-25T07:04:50.511Z,78.16
2019-05-25T07:05:50.515Z,78.98
2019-05-25T07:06:50.496Z,78.98
2019-05-25T07:07:52.525Z,78.88
2019-05-25T07:08:50.468Z,78.27
2019-05-25T07:09:50.483Z,77.41
2019-05-25T07:10:50.443Z,76.93
2019-05-25T07:11:50.446Z,77.41
2019-05-25T07:12:50.427Z,78.23
2019-05-25T07:13:50.407Z,78.33
2019-05-25T07:14:50.403Z,77.72
2019-05-25T07:15:50.383Z,77.98
2019-05-25T07:16:50.382Z,77.89
2019-05-25T07:17:50.408Z,77.78
2019-05-25T07:18:50.350Z,77.75
2019-05-25T07:19:50.348Z,76.73
2019-05-25T07:20:50.343Z,75.51
2019-05-25T07:21:50.320Z,75.51
2019-05-25T07:22:50.319Z,76.62
2019-05-25T07:23:50.306Z,76.22
2019-05-25T07:24:50.287Z,75.34
2019-05-25T07:25:50.278Z,76.66
2019-05-25T07:26:50.283Z,77.24
2019-05-25T07:27:58.740Z,75.34
2019-05-25T07:28:51.253Z,75.13
2019-05-25T07:29:50.236Z,75.95
2019-05-25T07:30:50.218Z,76.15
2019-05-25T07:31:50.202Z,76.25
2019-05-25T07:32:50.195Z,74.86
2019-05-25T07:33:50.187Z,74.76
2019-05-25T07:34:50.219Z,75.16
2019-05-25T07:35:50.163Z,74.93
2019-05-25T07:36:50.150Z,75.44
2019-05-25T07:37:50.142Z,75.13
2019-05-25T07:38:50.135Z,74.45
2019-05-25T07:39:50.161Z,75.27
2019-05-25T07:40:50.103Z,75.64
2019-05-25T07:41:50.103Z,75.34
2019-05-25T07:42:50.091Z,74.93
2019-05-25T07:43:50.067Z,75.03
2019-05-25T07:44:50.071Z,75.03
2019-05-25T07:45:50.063Z,74.99
2019-05-25T07:46:50.038Z,74.69
2019-05-25T07:47:50.030Z,73.36
2019-05-25T07:48:50.543Z,73.06
2019-05-25T07:49:50.005Z,74.38
2019-05-25T07:50:50.036Z,74.58
2019-05-25T07:51:49.991Z,74.08
2019-05-25T07:52:49.972Z,74.04
2019-05-25T07:53:49.959Z,74.38
2019-05-25T07:54:49.972Z,73.67
2019-05-25T07:55:49.963Z,74.38
2019-05-25T07:56:49.990Z,74.79
2019-05-25T07:57:49.924Z,74.45
2019-05-25T07:58:49.898Z,72.52
2019-05-25T07:59:49.890Z,72.62
2019-05-25T08:00:49.947Z,72.41
2019-05-25T08:01:49.871Z,72.89
2019-05-25T08:02:49.855Z,72.48
2019-05-25T08:03:50.018Z,72.78
2019-05-25T08:04:49.831Z,72.28
2019-05-25T08:05:49.839Z,71.43
2019-05-25T08:06:49.810Z,70.41
2019-05-25T08:07:49.803Z,69.93
2019-05-25T08:08:49.795Z,70.34
2019-05-25T08:09:49.780Z,69.63
2019-05-25T08:10:49.820Z,69.70
2019-05-25T08:11:49.754Z,68.51
2019-05-25T08:12:49.792Z,69.60
2019-05-25T08:13:49.784Z,68.82
2019-05-25T08:14:49.723Z,68.01
2019-05-25T08:15:49.711Z,69.40
2019-05-25T08:16:49.712Z,67.08
2019-05-25T08:17:49.702Z,68.58
2019-05-25T08:18:49.761Z,68.27
2019-05-25T08:19:49.668Z,67.46
2019-05-25T08:20:49.659Z,66.55
2019-05-25T08:21:49.646Z,67.74
2019-05-25T08:22:49.704Z,67.94
2019-05-25T08:23:49.623Z,67.53
2019-05-25T08:24:49.611Z,66.69
2019-05-25T08:25:49.611Z,67.60
2019-05-25T08:26:49.592Z,65.47
2019-05-25T08:27:49.586Z,65.77
2019-05-25T08:28:49.566Z,65.26
2019-05-25T08:29:49.558Z,65.39
2019-05-25T08:30:49.582Z,64.69
2019-05-25T08:31:49.559Z,65.50
2019-05-25T08:32:49.590Z,64.89
2019-05-25T08:33:49.519Z,65.39
2019-05-25T08:34:49.503Z,65.70
2019-05-25T08:35:49.503Z,65.70
2019-05-25T08:36:49.471Z,65.80
2019-05-25T08:37:49.483Z,66.18
2019-05-25T08:38:49.451Z,65.88
2019-05-25T08:39:49.443Z,64.52
2019-05-25T08:40:49.441Z,63.91
2019-05-25T08:41:49.440Z,63.91
2019-05-25T08:42:49.419Z,64.12
2019-05-25T08:43:49.399Z,63.20
2019-05-25T08:44:49.404Z,64.12
2019-05-25T08:45:49.372Z,64.83
2019-05-25T08:46:49.363Z,63.51
2019-05-25T08:47:49.363Z,61.88
2019-05-25T08:48:49.343Z,61.27
2019-05-25T08:49:49.327Z,61.27
2019-05-25T08:50:49.335Z,63.88
2019-05-25T08:51:49.315Z,63.28
2019-05-25T08:52:49.303Z,61.34
2019-05-25T08:53:49.287Z,60.81
2019-05-25T08:54:49.287Z,61.85
2019-05-25T08:55:49.279Z,61.14
2019-05-25T08:56:49.251Z,62.66
2019-05-25T08:57:49.247Z,63.00
2019-05-25T08:58:49.227Z,63.30
2019-05-25T08:59:49.219Z,63.91
2019-05-25T09:00:49.202Z,63.81
2019-05-25T09:01:49.621Z,63.13
2019-05-25T09:02:49.182Z,64.04
2019-05-25T09:03:49.175Z,63.74
2019-05-25T09:04:49.246Z,63.64
2019-05-25T09:05:49.219Z,64.15
2019-05-25T09:06:49.134Z,64.45
2019-05-25T09:07:49.153Z,62.21
2019-05-25T09:08:49.133Z,62.90
2019-05-25T09:09:49.150Z,63.28
2019-05-25T09:10:49.097Z,61.85
2019-05-25T09:11:49.089Z,61.14
2019-05-25T09:12:49.077Z,61.55
2019-05-25T09:13:49.077Z,63.75
2019-05-25T09:14:49.060Z,63.37
2019-05-25T09:15:49.045Z,62.97
2019-05-25T09:16:49.030Z,61.98
2019-05-25T09:17:49.045Z,62.08
2019-05-25T09:18:49.013Z,63.10
2019-05-25T09:19:49.009Z,62.11
2019-05-25T09:20:48.989Z,63.26
2019-05-25T09:22:01.971Z,65.36
2019-05-25T09:22:49.958Z,64.01
2019-05-25T09:23:49.047Z,65.30
2019-05-25T09:24:48.933Z,61.55
2019-05-25T09:25:48.933Z,62.66
2019-05-25T09:26:48.933Z,59.82
2019-05-25T09:27:48.905Z,61.32
2019-05-25T09:29:03.450Z,63.32
2019-05-25T09:29:49.953Z,63.52
2019-05-25T09:30:48.878Z,61.74
2019-05-25T09:31:48.881Z,59.91
2019-05-25T09:32:48.845Z,60.08
2019-05-25T09:33:48.842Z,58.49
2019-05-25T09:34:48.907Z,59.30
2019-05-25T09:35:48.860Z,59.91
2019-05-25T09:36:48.806Z,59.88
2019-05-25T09:37:48.794Z,58.56
2019-05-25T09:38:48.827Z,58.59
2019-05-25T09:39:48.765Z,59.27
2019-05-25T09:40:48.782Z,58.47
2019-05-25T09:41:48.749Z,58.34
2019-05-25T09:42:49.027Z,58.03
2019-05-25T09:43:48.728Z,58.44
2019-05-25T09:44:48.709Z,57.53
2019-05-25T09:45:48.709Z,58.34
2019-05-25T09:46:48.718Z,59.45
2019-05-25T09:47:48.677Z,59.25
2019-05-25T09:48:48.669Z,58.36
2019-05-25T09:49:48.670Z,58.29
2019-05-25T09:50:48.658Z,59.23
2019-05-25T09:51:48.842Z,59.23
2019-05-25T09:52:48.641Z,60.42
2019-05-25T09:53:48.638Z,58.87
2019-05-25T09:54:48.605Z,59.38
2019-05-25T09:55:48.589Z,58.18
2019-05-25T09:56:48.581Z,58.39
2019-05-25T09:57:48.625Z,58.39
2019-05-25T09:58:48.573Z,58.39
2019-05-25T09:59:48.545Z,58.52
2019-05-25T10:00:48.529Z,59.33
2019-05-25T10:01:48.521Z,58.39
2019-05-25T10:02:48.662Z,58.90
2019-05-25T10:03:48.501Z,59.00
2019-05-25T10:04:48.505Z,57.91
2019-05-25T10:05:48.533Z,58.72
2019-05-25T10:06:48.501Z,60.31
2019-05-25T10:07:48.540Z,61.74
2019-05-25T10:08:48.467Z,61.74
2019-05-25T10:09:48.471Z,61.83
2019-05-25T10:10:48.534Z,59.88
2019-05-25T10:11:48.418Z,60.89
2019-05-25T10:12:48.401Z,58.26
2019-05-25T10:13:48.399Z,58.47
2019-05-25T10:14:48.400Z,58.87
2019-05-25T10:15:48.365Z,59.48
2019-05-25T10:16:48.361Z,60.66
2019-05-25T10:17:48.405Z,59.32
2019-05-25T10:18:48.338Z,57.78
2019-05-25T10:19:48.325Z,59.56
2019-05-25T10:20:48.350Z,60.96
2019-05-25T10:21:48.308Z,59.81
2019-05-25T10:22:48.289Z,55.47
2019-05-25T10:23:48.297Z,55.54
2019-05-25T10:24:48.321Z,53.52
2019-05-25T10:25:48.255Z,54.74
2019-05-25T10:26:48.258Z,53.55
2019-05-25T10:27:48.258Z,58.80
2019-05-25T10:28:48.237Z,59.11
2019-05-25T10:29:48.209Z,55.22
2019-05-25T10:30:48.201Z,56.05
2019-05-25T10:31:48.209Z,56.79
2019-05-25T10:32:48.300Z,57.57
2019-05-25T10:33:48.189Z,56.76
2019-05-25T10:34:48.157Z,56.56
2019-05-25T10:35:48.149Z,56.84
2019-05-25T10:36:48.132Z,56.30
2019-05-25T10:37:48.148Z,57.21
2019-05-25T10:38:48.122Z,54.79
2019-05-25T10:39:48.155Z,56.33
2019-05-25T10:40:48.108Z,56.33
2019-05-25T10:41:48.075Z,56.33
2019-05-25T10:42:48.082Z,56.46
2019-05-25T10:43:48.081Z,57.07
2019-05-25T10:44:48.045Z,56.84
2019-05-25T10:45:48.034Z,56.86
2019-05-25T10:46:48.085Z,58.25
2019-05-25T10:47:48.013Z,56.71
2019-05-25T10:48:48.069Z,56.68
2019-05-25T10:49:47.986Z,56.58
2019-05-25T10:50:47.989Z,56.98
2019-05-25T10:51:47.973Z,56.85
2019-05-25T10:52:47.998Z,56.05
2019-05-25T10:53:47.945Z,55.94
2019-05-25T10:54:47.986Z,56.76
2019-05-25T10:55:47.936Z,55.01
2019-05-25T10:56:47.917Z,56.83
2019-05-25T10:57:47.901Z,55.11
2019-05-25T10:58:47.905Z,54.43
2019-05-25T10:59:53.118Z,56.18
2019-05-25T11:00:48.865Z,55.90
2019-05-25T11:01:47.853Z,56.23
2019-05-25T11:02:47.842Z,56.96
2019-05-25T11:03:47.867Z,59.09
2019-05-25T11:04:47.832Z,58.89
2019-05-25T11:05:47.819Z,58.36
2019-05-25T11:06:47.801Z,57.34
2019-05-25T11:07:47.813Z,58.53
2019-05-25T11:08:47.784Z,57.62
2019-05-25T11:09:47.781Z,57.59
2019-05-25T11:10:47.776Z,61.23
2019-05-25T11:11:47.802Z,56.85
2019-05-25T11:12:47.737Z,57.03
2019-05-25T11:13:47.729Z,55.44
2019-05-25T11:14:47.728Z,53.52
2019-05-25T11:15:47.702Z,53.96
2019-05-25T11:16:47.733Z,57.69
2019-05-25T11:17:47.726Z,56.78
2019-05-25T11:18:47.665Z,58.09
2019-05-25T11:19:47.685Z,57.26
2019-05-25T11:20:47.716Z,57.59
2019-05-25T11:21:47.641Z,60.19
2019-05-25T11:22:47.629Z,59.89
2019-05-25T11:23:47.617Z,60.97
2019-05-25T11:24:47.645Z,57.94
2019-05-25T11:25:47.594Z,55.11
2019-05-25T11:26:47.581Z,55.82
2019-05-25T11:27:47.576Z,57.14
2019-05-25T11:28:47.556Z,56.52
2019-05-25T11:29:47.545Z,55.85
2019-05-25T11:30:47.552Z,57.16
2019-05-25T11:31:55.353Z,56.27
2019-05-25T11:32:48.531Z,56.78
2019-05-25T11:33:47.497Z,57.87
2019-05-25T11:34:47.489Z,57.56
2019-05-25T11:35:47.483Z,56.96
2019-05-25T11:36:47.488Z,55.82
2019-05-25T11:37:47.455Z,56.83
2019-05-25T11:38:47.464Z,55.62
2019-05-25T11:39:47.437Z,57.34
2019-05-25T11:40:47.421Z,56.43
2019-05-25T11:41:47.414Z,55.72
2019-05-25T11:42:47.409Z,56.83
2019-05-25T11:43:47.389Z,56.85
2019-05-25T11:44:47.385Z,55.44
2019-05-25T11:45:47.376Z,57.16
2019-05-25T11:46:47.359Z,57.43
2019-05-25T11:47:47.362Z,55.72
2019-05-25T11:48:47.328Z,56.02
2019-05-25T11:49:47.320Z,56.12
2019-05-25T11:50:47.313Z,55.92
2019-05-25T11:51:47.297Z,56.02
2019-05-25T11:52:47.334Z,55.49
2019-05-25T11:53:47.284Z,56.60
2019-05-25T11:54:47.275Z,55.90
2019-05-25T11:55:47.275Z,55.09
2019-05-25T11:56:47.273Z,55.69
2019-05-25T11:57:47.233Z,56.81
2019-05-25T11:58:47.930Z,56.90
2019-05-25T11:59:47.213Z,55.79
2019-05-25T12:00:47.194Z,57.10
2019-05-25T12:01:47.189Z,57.54
2019-05-25T12:02:47.194Z,56.30
2019-05-25T12:03:47.164Z,56.20
2019-05-25T12:04:47.172Z,56.32
2019-05-25T12:05:47.141Z,56.65
2019-05-25T12:06:47.128Z,55.85
2019-05-25T12:07:47.122Z,56.48
2019-05-25T12:08:47.157Z,57.06
2019-05-25T12:09:47.105Z,57.76
2019-05-25T12:10:47.097Z,56.35
2019-05-25T12:11:47.083Z,56.05
2019-05-25T12:12:47.269Z,57.64
2019-05-25T12:13:47.049Z,55.04
2019-05-25T12:14:47.065Z,56.93
2019-05-25T12:15:47.042Z,56.83
2019-05-25T12:16:47.050Z,56.81
2019-05-25T12:17:47.005Z,56.98
2019-05-25T12:18:46.997Z,55.87
2019-05-25T12:19:46.997Z,53.65
2019-05-25T12:20:46.978Z,54.89
2019-05-25T12:21:46.996Z,54.79
2019-05-25T12:22:46.969Z,54.56
2019-05-25T12:23:46.942Z,55.66
2019-05-25T12:24:46.936Z,56.15
2019-05-25T12:25:46.921Z,55.24
2019-05-25T12:26:46.909Z,53.42
2019-05-25T12:27:49.422Z,52.62
2019-05-25T12:28:46.893Z,53.12
2019-05-25T12:29:46.878Z,53.14
2019-05-25T12:30:46.871Z,54.23
2019-05-25T12:31:46.856Z,53.63
2019-05-25T12:32:46.837Z,55.54
2019-05-25T12:33:46.845Z,56.24
2019-05-25T12:34:46.819Z,53.40
2019-05-25T12:35:46.819Z,53.00
2019-05-25T12:36:46.793Z,53.27
2019-05-25T12:37:46.821Z,51.68
2019-05-25T12:38:46.773Z,51.48
2019-05-25T12:39:46.777Z,51.89
2019-05-25T12:40:53.700Z,53.00
2019-05-25T12:41:47.757Z,51.89
2019-05-25T12:42:46.738Z,51.66
2019-05-25T12:43:46.721Z,53.88
2019-05-25T12:44:46.726Z,51.48
2019-05-25T12:45:46.697Z,52.89
2019-05-25T12:46:46.689Z,52.59
2019-05-25T12:47:46.710Z,53.40
2019-05-25T12:48:46.661Z,53.40
2019-05-25T12:49:50.580Z,52.59
2019-05-25T12:50:46.649Z,52.89
2019-05-25T12:51:46.629Z,53.40
2019-05-25T12:52:46.624Z,53.60